Time;durP1;ratioP1;P1;durP2;ratioP2;P2;SDS_P1;SDS_P2;PMS_P1;PMS_P2;Temp;Humidity;BMP_temperature;BMP_pressure;BME280_temperature;BME280_humidity;BME280_pressure;Samples;Min_cycle;Max_cycle;Signal;HPM_P1;HPM_P2
2021/05/30 00:00:01;;;;;;;2.40;2.03;;;10.50;99.90;;;;;;5071099;28;20250;-60
2021/05/30 00:02:27;;;;;;;2.20;1.67;;;10.40;99.90;;;;;;5071160;28;20232;-59
2021/05/30 00:04:53;;;;;;;2.77;2.10;;;10.40;99.90;;;;;;5071064;28;20225;-59
2021/05/30 00:07:22;;;;;;;2.10;1.90;;;10.30;99.90;;;;;;5071512;28;20205;-60
2021/05/30 00:09:48;;;;;;;1.93;1.70;;;10.30;99.90;;;;;;5071003;28;20200;-60
2021/05/30 00:12:15;;;;;;;2.13;1.80;;;10.30;99.90;;;;;;5071343;28;20204;-59
2021/05/30 00:14:42;;;;;;;2.63;1.90;;;10.20;99.90;;;;;;5071101;28;20224;-59
2021/05/30 00:17:08;;;;;;;2.40;1.87;;;10.20;99.90;;;;;;5071208;28;20205;-59
2021/05/30 00:19:35;;;;;;;1.90;1.53;;;10.20;99.90;;;;;;5070989;28;20284;-59
2021/05/30 00:22:01;;;;;;;2.00;1.70;;;10.10;99.90;;;;;;5071136;28;20228;-59
2021/05/30 00:24:28;;;;;;;2.10;1.73;;;10.10;99.90;;;;;;5070573;28;20236;-59
2021/05/30 00:26:54;;;;;;;1.70;1.60;;;10.20;99.90;;;;;;5071021;28;20212;-60
2021/05/30 00:29:21;;;;;;;1.90;1.70;;;10.10;99.90;;;;;;5070764;28;20212;-59
2021/05/30 00:31:47;;;;;;;2.57;1.83;;;10.00;99.90;;;;;;5070958;28;20197;-59
2021/05/30 00:34:13;;;;;;;2.17;1.73;;;10.00;99.90;;;;;;5070913;28;20701;-60
2021/05/30 00:36:40;;;;;;;2.60;2.00;;;10.10;99.90;;;;;;5071315;28;20217;-59
2021/05/30 00:39:06;;;;;;;2.50;1.87;;;10.20;99.90;;;;;;5071058;28;20212;-60
2021/05/30 00:41:32;;;;;;;3.73;2.03;;;10.30;99.90;;;;;;5070878;28;20696;-60
2021/05/30 00:43:59;;;;;;;2.80;2.03;;;10.40;99.90;;;;;;5070674;28;20229;-60
2021/05/30 00:46:26;;;;;;;2.60;1.87;;;10.50;99.90;;;;;;5070918;28;20209;-59
2021/05/30 00:48:53;;;;;;;2.57;1.87;;;10.50;99.90;;;;;;5070929;28;20669;-60
2021/05/30 00:51:19;;;;;;;2.60;2.20;;;10.40;99.90;;;;;;5070841;28;20609;-60
2021/05/30 00:53:45;;;;;;;2.50;1.77;;;10.40;99.90;;;;;;5070588;28;20228;-60
2021/05/30 00:56:13;;;;;;;4.13;2.00;;;10.40;99.90;;;;;;5070818;28;20209;-60
2021/05/30 00:58:40;;;;;;;2.63;1.80;;;10.40;99.90;;;;;;5070503;28;20209;-61
2021/05/30 01:01:07;;;;;;;4.33;2.00;;;10.40;99.90;;;;;;5070431;28;20240;-60
2021/05/30 01:03:35;;;;;;;3.33;2.00;;;10.30;99.90;;;;;;5070563;28;20229;-60
2021/05/30 01:06:01;;;;;;;3.67;1.87;;;10.30;99.90;;;;;;5071972;28;20635;-60
2021/05/30 01:08:27;;;;;;;4.17;2.20;;;10.30;99.90;;;;;;5074515;28;20205;-60
2021/05/30 01:10:56;;;;;;;2.20;2.00;;;10.30;99.90;;;;;;5074283;28;20212;-60
2021/05/30 01:13:23;;;;;;;2.43;1.83;;;10.30;99.90;;;;;;5074289;28;20225;-59
2021/05/30 01:15:49;;;;;;;3.03;2.00;;;10.20;99.90;;;;;;5074284;28;20262;-60
2021/05/30 01:18:17;;;;;;;1.77;1.60;;;10.20;99.90;;;;;;5074382;28;20269;-60
2021/05/30 01:20:44;;;;;;;2.63;1.70;;;10.10;99.90;;;;;;5074249;28;20211;-60
2021/05/30 01:23:14;;;;;;;2.37;2.10;;;10.00;99.90;;;;;;5074139;28;20231;-59
2021/05/30 01:25:41;;;;;;;3.47;2.20;;;9.90;99.90;;;;;;5074005;28;20231;-60
2021/05/30 01:28:07;;;;;;;3.20;2.00;;;9.90;99.90;;;;;;5073840;28;20209;-60
2021/05/30 01:30:35;;;;;;;2.87;2.10;;;9.90;99.90;;;;;;5073964;28;20528;-59
2021/05/30 01:33:01;;;;;;;2.37;2.13;;;9.90;99.90;;;;;;5073981;28;20197;-59
2021/05/30 01:35:28;;;;;;;2.90;1.90;;;9.90;99.90;;;;;;5074163;28;20239;-60
2021/05/30 01:37:54;;;;;;;4.23;2.00;;;9.90;99.90;;;;;;5073776;28;20215;-59
2021/05/30 01:40:23;;;;;;;2.27;2.07;;;9.90;99.90;;;;;;5073927;28;20231;-59
2021/05/30 01:42:51;;;;;;;4.07;2.00;;;9.80;99.90;;;;;;5073629;28;20247;-60
2021/05/30 01:45:19;;;;;;;2.77;2.10;;;9.80;99.90;;;;;;5073738;28;20232;-60
2021/05/30 01:47:46;;;;;;;2.77;1.87;;;9.80;99.90;;;;;;5073509;28;20209;-60
2021/05/30 01:50:15;;;;;;;2.37;2.10;;;9.70;99.90;;;;;;5073500;28;20207;-60
2021/05/30 01:52:41;;;;;;;3.10;2.13;;;9.60;99.90;;;;;;5073929;28;20208;-62
2021/05/30 01:55:16;;;;;;;3.73;2.27;;;9.60;99.90;;;;;;5073980;28;20225;-58
2021/05/30 01:57:46;;;;;;;2.50;2.03;;;9.50;99.90;;;;;;5074020;28;20672;-58
2021/05/30 02:00:13;;;;;;;2.20;1.90;;;9.50;99.90;;;;;;5074081;28;20204;-59
2021/05/30 02:02:40;;;;;;;2.33;2.10;;;9.60;99.90;;;;;;5073639;28;20436;-59
2021/05/30 02:05:07;;;;;;;3.23;2.50;;;9.70;99.90;;;;;;5073202;28;20229;-59
2021/05/30 02:07:34;;;;;;;3.77;2.20;;;9.70;99.90;;;;;;5073460;28;20209;-59
2021/05/30 02:10:01;;;;;;;2.60;2.40;;;9.70;99.90;;;;;;5073217;28;20213;-59
2021/05/30 02:12:28;;;;;;;3.07;2.13;;;9.70;99.90;;;;;;5073493;28;20201;-59
2021/05/30 02:14:56;;;;;;;2.73;2.30;;;9.70;99.90;;;;;;5073347;28;20228;-60
2021/05/30 02:17:23;;;;;;;2.80;2.20;;;9.70;99.90;;;;;;5073129;28;20209;-59
2021/05/30 02:19:49;;;;;;;2.20;2.00;;;9.60;99.90;;;;;;5073180;28;20208;-59
2021/05/30 02:22:15;;;;;;;2.37;2.10;;;9.50;99.90;;;;;;5073150;28;20243;-59
2021/05/30 02:24:44;;;;;;;2.73;2.53;;;9.50;99.90;;;;;;5073091;28;20225;-59
2021/05/30 02:27:10;;;;;;;2.73;2.20;;;9.40;99.90;;;;;;5073409;28;20204;-59
2021/05/30 02:29:37;;;;;;;4.13;2.30;;;9.40;99.90;;;;;;5073126;28;20216;-59
2021/05/30 02:32:06;;;;;;;2.60;2.40;;;9.30;99.90;;;;;;5073301;28;20574;-59
2021/05/30 02:34:32;;;;;;;2.20;2.00;;;9.30;99.90;;;;;;5073149;28;20233;-59
2021/05/30 02:36:59;;;;;;;3.33;2.30;;;9.30;99.90;;;;;;5073112;28;20487;-59
2021/05/30 02:39:25;;;;;;;2.53;2.00;;;9.30;99.90;;;;;;5073321;28;20266;-59
2021/05/30 02:41:51;;;;;;;3.97;2.50;;;9.30;99.90;;;;;;5073313;28;20229;-59
2021/05/30 02:44:18;;;;;;;4.73;2.50;;;9.30;99.90;;;;;;5073231;28;20236;-59
2021/05/30 02:46:44;;;;;;;3.27;2.50;;;9.30;99.90;;;;;;5073314;28;20207;-59
2021/05/30 02:49:11;;;;;;;3.00;2.47;;;9.30;99.90;;;;;;5072875;28;20208;-59
2021/05/30 02:51:37;;;;;;;2.83;2.30;;;9.30;99.90;;;;;;5072770;28;20208;-59
2021/05/30 02:54:04;;;;;;;3.03;2.60;;;9.30;99.90;;;;;;5072648;28;20707;-59
2021/05/30 02:56:30;;;;;;;2.63;2.43;;;9.30;99.90;;;;;;5072962;28;20669;-59
2021/05/30 02:58:56;;;;;;;3.30;2.40;;;9.30;99.90;;;;;;5073212;28;20204;-59
2021/05/30 03:01:23;;;;;;;3.13;2.50;;;9.30;99.90;;;;;;5072664;28;20703;-59
2021/05/30 03:03:50;;;;;;;2.80;2.60;;;9.20;99.90;;;;;;5072396;28;20246;-59
2021/05/30 03:06:17;;;;;;;3.07;2.60;;;9.20;99.90;;;;;;5073088;28;20212;-60
2021/05/30 03:08:44;;;;;;;3.53;2.83;;;9.10;99.90;;;;;;5073607;28;20223;-58
2021/05/30 03:11:10;;;;;;;2.87;2.40;;;9.10;99.90;;;;;;5073107;28;20205;-59
2021/05/30 03:13:36;;;;;;;4.40;2.60;;;9.10;99.90;;;;;;5072479;28;20225;-59
2021/05/30 03:16:03;;;;;;;2.77;2.50;;;9.20;99.90;;;;;;5072586;28;20270;-58
2021/05/30 03:18:29;;;;;;;3.33;2.77;;;9.20;99.90;;;;;;5072502;28;20207;-58
2021/05/30 03:20:55;;;;;;;4.13;2.47;;;9.20;99.90;;;;;;5072667;28;20209;-58
2021/05/30 03:23:22;;;;;;;4.03;2.37;;;9.30;99.90;;;;;;5072563;28;20236;-59
2021/05/30 03:25:48;;;;;;;2.70;2.30;;;9.30;99.90;;;;;;5072917;28;20255;-58
2021/05/30 03:28:14;;;;;;;3.37;2.80;;;9.30;99.90;;;;;;5072018;28;20201;-58
2021/05/30 03:30:41;;;;;;;3.43;2.50;;;9.30;99.90;;;;;;5072380;28;20605;-58
2021/05/30 03:33:07;;;;;;;2.93;2.63;;;9.30;99.90;;;;;;5072237;28;20216;-60
2021/05/30 03:35:34;;;;;;;4.63;2.93;;;9.40;99.90;;;;;;5072333;28;20201;-59
2021/05/30 03:38:02;;;;;;;2.90;2.63;;;9.40;99.90;;;;;;5072175;28;20258;-59
2021/05/30 03:40:32;;;;;;;2.97;2.73;;;9.40;99.90;;;;;;5072250;28;20201;-59
2021/05/30 03:42:59;;;;;;;4.40;3.00;;;9.40;99.90;;;;;;5072029;28;20232;-59
2021/05/30 03:45:25;;;;;;;5.00;2.63;;;9.30;99.90;;;;;;5071556;28;20266;-59
2021/05/30 03:47:52;;;;;;;2.90;2.60;;;9.10;99.90;;;;;;5071751;28;20215;-58
2021/05/30 03:50:19;;;;;;;2.97;2.50;;;9.10;99.90;;;;;;5071953;28;20605;-59
2021/05/30 03:52:45;;;;;;;3.90;2.83;;;9.10;99.90;;;;;;5071985;28;20197;-59
2021/05/30 03:55:14;;;;;;;3.90;2.40;;;9.10;99.90;;;;;;5071757;28;20255;-58
2021/05/30 03:57:41;;;;;;;3.60;2.87;;;9.10;99.90;;;;;;5071727;28;20208;-59
2021/05/30 04:00:09;;;;;;;2.67;2.40;;;9.20;99.90;;;;;;5071740;28;20215;-59
2021/05/30 04:02:36;;;;;;;4.13;2.60;;;9.20;99.90;;;;;;5071552;28;20225;-59
2021/05/30 04:05:02;;;;;;;3.40;2.50;;;9.20;99.90;;;;;;5071923;28;20236;-58
2021/05/30 04:07:29;;;;;;;2.83;2.50;;;9.20;99.90;;;;;;5071656;28;20204;-59
2021/05/30 04:09:56;;;;;;;2.87;2.47;;;9.30;99.90;;;;;;5071717;28;20476;-59
2021/05/30 04:12:22;;;;;;;3.33;2.60;;;9.30;99.90;;;;;;5071311;28;20224;-59
2021/05/30 04:14:49;;;;;;;2.60;2.40;;;9.40;99.90;;;;;;5071104;28;20282;-59
2021/05/30 04:17:15;;;;;;;3.07;2.70;;;9.50;99.90;;;;;;5071185;28;20589;-59
2021/05/30 04:19:41;;;;;;;3.10;2.70;;;9.50;99.90;;;;;;5071280;28;20209;-58
2021/05/30 04:22:07;;;;;;;3.53;2.70;;;9.60;99.90;;;;;;5071276;28;20217;-59
2021/05/30 04:24:33;;;;;;;4.07;3.07;;;9.70;99.90;;;;;;5071422;28;20700;-59
2021/05/30 04:27:00;;;;;;;4.53;3.00;;;9.70;99.90;;;;;;5071510;28;20692;-58
2021/05/30 04:29:26;;;;;;;4.43;2.37;;;9.80;99.90;;;;;;5071405;28;20217;-59
2021/05/30 04:31:53;;;;;;;3.47;2.83;;;9.90;99.90;;;;;;5071503;28;20280;-59
2021/05/30 04:34:19;;;;;;;3.90;2.87;;;10.00;99.90;;;;;;5071199;28;20236;-59
2021/05/30 04:36:45;;;;;;;3.67;2.67;;;10.10;99.90;;;;;;5071594;28;20205;-59
2021/05/30 04:39:12;;;;;;;3.93;2.80;;;10.20;99.90;;;;;;5071314;28;20205;-59
2021/05/30 04:41:38;;;;;;;3.00;2.70;;;10.30;99.90;;;;;;5073267;28;20225;-59
2021/05/30 04:44:04;;;;;;;5.17;3.33;;;10.40;99.90;;;;;;5074452;28;20583;-59
2021/05/30 04:46:30;;;;;;;3.20;2.80;;;10.40;99.90;;;;;;5075270;28;20208;-59
2021/05/30 04:48:58;;;;;;;4.77;2.70;;;10.60;99.90;;;;;;5075260;28;20334;-59
2021/05/30 04:51:24;;;;;;;3.97;3.10;;;10.70;99.90;;;;;;5075323;28;20201;-59
2021/05/30 04:53:54;;;;;;;3.77;3.10;;;10.90;99.90;;;;;;5075256;28;20231;-59
2021/05/30 04:56:21;;;;;;;4.07;3.03;;;11.00;99.90;;;;;;5075254;28;20209;-59
2021/05/30 04:58:48;;;;;;;3.63;2.63;;;11.20;99.90;;;;;;5074841;28;20295;-59
2021/05/30 05:01:14;;;;;;;3.53;2.90;;;11.50;99.90;;;;;;5075021;28;20209;-59
2021/05/30 05:03:40;;;;;;;3.53;2.87;;;11.70;99.90;;;;;;5074639;28;20603;-59
2021/05/30 05:06:07;;;;;;;3.43;2.80;;;12.00;99.90;;;;;;5074874;28;20359;-59
2021/05/30 05:08:34;;;;;;;4.57;3.07;;;12.30;99.90;;;;;;5074484;28;20665;-59
2021/05/30 05:11:00;;;;;;;3.03;2.73;;;12.60;99.90;;;;;;5075007;28;20212;-59
2021/05/30 05:13:26;;;;;;;3.03;2.43;;;13.50;99.90;;;;;;5075433;28;20627;-59
2021/05/30 05:15:54;;;;;;;4.53;2.70;;;15.40;99.50;;;;;;5075191;28;20688;-59
2021/05/30 05:18:22;;;;;;;3.93;2.60;;;17.80;94.60;;;;;;5075399;28;20212;-59
2021/05/30 05:20:49;;;;;;;3.03;2.40;;;20.10;90.20;;;;;;5075541;28;20687;-59
2021/05/30 05:23:18;;;;;;;3.15;2.63;;;22.20;80.70;;;;;;5074196;28;20575;-59
2021/05/30 05:25:44;;;;;;;2.95;2.67;;;23.80;73.10;;;;;;5073891;28;20258;-59
2021/05/30 05:28:11;;;;;;;5.30;2.60;;;24.30;67.90;;;;;;5074234;28;20205;-59
2021/05/30 05:30:37;;;;;;;2.55;2.35;;;23.70;66.80;;;;;;5074223;28;20209;-59
2021/05/30 05:33:03;;;;;;;4.53;2.63;;;23.50;67.10;;;;;;5073921;28;20205;-59
2021/05/30 05:35:30;;;;;;;4.53;3.50;;;24.30;64.80;;;;;;5073679;28;20270;-59
2021/05/30 05:37:57;;;;;;;4.13;2.80;;;25.50;59.30;;;;;;5073673;28;20205;-59
2021/05/30 05:40:26;;;;;;;4.18;2.60;;;26.30;58.20;;;;;;5073717;28;20223;-59
2021/05/30 05:42:53;;;;;;;3.83;2.45;;;27.60;55.00;;;;;;5073599;28;20715;-59
2021/05/30 05:45:20;;;;;;;3.10;2.45;;;28.70;51.30;;;;;;5074126;28;20258;-59
2021/05/30 05:47:46;;;;;;;4.65;2.50;;;29.80;49.70;;;;;;5073587;28;20631;-60
2021/05/30 05:50:14;;;;;;;2.80;2.25;;;31.10;46.90;;;;;;5073628;28;20205;-59
2021/05/30 05:52:41;;;;;;;3.17;2.63;;;32.30;44.30;;;;;;5073027;28;20201;-60
2021/05/30 05:55:09;;;;;;;3.33;2.33;;;33.00;41.90;;;;;;5073481;28;20264;-60
2021/05/30 05:57:38;;;;;;;7.10;6.20;;;33.30;41.20;;;;;;5073666;28;20205;-60
2021/05/30 06:00:05;;;;;;;2.67;2.22;;;33.70;40.00;;;;;;5073745;28;20211;-60
2021/05/30 06:02:32;;;;;;;2.60;2.35;;;33.90;39.30;;;;;;5073575;28;20583;-60
2021/05/30 06:04:58;;;;;;;3.05;2.53;;;34.40;38.40;;;;;;5073676;28;20225;-60
2021/05/30 06:07:24;;;;;;;2.47;2.25;;;34.90;37.60;;;;;;5073860;28;20289;-60
2021/05/30 06:09:51;;;;;;;3.45;2.25;;;35.20;36.70;;;;;;5073489;28;20628;-60
2021/05/30 06:12:17;;;;;;;2.75;2.22;;;35.40;35.70;;;;;;5073742;28;20209;-60
2021/05/30 06:14:45;;;;;;;3.58;2.40;;;35.20;35.30;;;;;;5073253;28;20727;-60
2021/05/30 06:17:11;;;;;;;2.83;2.35;;;34.70;36.40;;;;;;5073782;28;20216;-60
2021/05/30 06:19:37;;;;;;;3.05;2.33;;;34.50;35.80;;;;;;5073612;28;20564;-60
2021/05/30 06:22:05;;;;;;;2.75;2.30;;;34.60;35.20;;;;;;5073629;28;20223;-60
2021/05/30 06:24:31;;;;;;;5.47;2.42;;;34.70;35.40;;;;;;5073718;28;20221;-60
2021/05/30 06:26:58;;;;;;;3.20;2.47;;;34.80;35.40;;;;;;5073742;28;20239;-60
2021/05/30 06:29:25;;;;;;;4.22;2.30;;;34.90;34.60;;;;;;5073556;28;20209;-61
2021/05/30 06:31:52;;;;;;;2.72;2.15;;;34.60;34.70;;;;;;5073478;28;20208;-61
2021/05/30 06:34:18;;;;;;;3.92;2.28;;;34.40;35.00;;;;;;5072856;28;20701;-60
2021/05/30 06:36:47;;;;;;;3.08;2.28;;;34.20;34.90;;;;;;5072810;28;20247;-60
2021/05/30 06:39:13;;;;;;;3.03;2.10;;;33.90;35.30;;;;;;5072866;28;20205;-60
2021/05/30 06:41:40;;;;;;;3.05;2.28;;;33.90;35.10;;;;;;5072986;28;20316;-60
2021/05/30 06:44:06;;;;;;;3.45;2.17;;;33.60;35.40;;;;;;5073020;28;20247;-65
2021/05/30 06:46:33;;;;;;;2.97;2.17;;;33.50;35.60;;;;;;5074670;28;20357;-66
2021/05/30 06:49:00;;;;;;;2.70;2.10;;;33.40;35.60;;;;;;5072465;28;20208;-59
2021/05/30 06:51:30;;;;;;;3.97;2.53;;;33.60;34.90;;;;;;5072589;28;20262;-59
2021/05/30 06:53:57;;;;;;;2.70;2.20;;;33.60;35.20;;;;;;5071739;28;20521;-67
2021/05/30 06:56:24;;;;;;;3.67;2.30;;;33.50;35.50;;;;;;5052239;28;20201;-59
2021/05/30 06:58:50;;;;;;;2.90;2.20;;;34.20;34.50;;;;;;5052048;28;20232;-59
2021/05/30 07:01:19;;;;;;;2.75;2.03;;;34.60;33.80;;;;;;5052280;28;20227;-59
2021/05/30 07:03:46;;;;;;;2.60;2.22;;;34.70;33.50;;;;;;5050666;28;20358;-60
2021/05/30 07:06:13;;;;;;;2.42;2.00;;;34.80;33.40;;;;;;5051848;28;20215;-59
2021/05/30 07:08:39;;;;;;;3.25;2.30;;;35.20;33.10;;;;;;5052373;28;20202;-60
2021/05/30 07:11:06;;;;;;;3.20;2.22;;;35.40;32.40;;;;;;5052222;28;20248;-59
2021/05/30 07:13:32;;;;;;;4.10;2.10;;;35.70;31.90;;;;;;5051996;28;20592;-60
2021/05/30 07:15:58;;;;;;;2.78;2.10;;;36.00;32.00;;;;;;5051753;28;20673;-60
2021/05/30 07:18:24;;;;;;;2.45;2.13;;;36.50;31.80;;;;;;5052566;28;20386;-60
2021/05/30 07:20:53;;;;;;;5.18;2.30;;;36.80;30.80;;;;;;5052020;28;20209;-59
2021/05/30 07:23:20;;;;;;;2.28;1.98;;;36.60;31.60;;;;;;5051852;28;20237;-59
2021/05/30 07:25:47;;;;;;;6.90;2.65;;;36.70;30.80;;;;;;5052347;28;20206;-68
2021/05/30 07:28:14;;;;;;;2.83;2.25;;;37.30;30.70;;;;;;5052081;28;20620;-62
2021/05/30 07:30:40;;;;;;;2.58;2.10;;;37.50;30.10;;;;;;5051937;28;20209;-66
2021/05/30 07:33:07;;;;;;;2.30;1.98;;;37.60;30.00;;;;;;5051950;28;20201;-64
2021/05/30 07:35:34;;;;;;;2.35;1.92;;;37.30;29.80;;;;;;5051807;28;20214;-64
2021/05/30 07:38:01;;;;;;;2.83;1.92;;;37.00;29.80;;;;;;5052128;28;20208;-63
2021/05/30 07:40:29;;;;;;;3.85;2.17;;;36.10;30.40;;;;;;5050606;28;20215;-60
2021/05/30 07:42:55;;;;;;;2.10;1.80;;;35.00;31.80;;;;;;5051187;28;20217;-63
2021/05/30 07:45:23;;;;;;;3.83;2.00;;;34.40;32.20;;;;;;5051043;28;20213;-61
2021/05/30 07:47:50;;;;;;;3.35;2.20;;;34.90;31.80;;;;;;5051234;28;20554;-61
2021/05/30 07:50:17;;;;;;;3.45;2.10;;;35.70;31.30;;;;;;5051570;28;20209;-62
2021/05/30 07:52:44;;;;;;;3.33;2.22;;;36.20;31.10;;;;;;5051398;28;20206;-63
2021/05/30 07:55:11;;;;;;;3.63;2.10;;;35.80;30.80;;;;;;5051182;28;20609;-63
2021/05/30 07:57:38;;;;;;;5.00;2.20;;;35.00;30.90;;;;;;5050965;28;20212;-62
2021/05/30 08:00:08;;;;;;;2.20;2.00;;;34.40;32.30;;;;;;5050995;28;20235;-64
2021/05/30 08:02:34;;;;;;;3.50;2.17;;;33.90;32.30;;;;;;5051036;28;20252;-61
2021/05/30 08:05:01;;;;;;;2.03;1.80;;;33.70;32.00;;;;;;5051271;28;20233;-62
2021/05/30 08:07:27;;;;;;;3.00;1.83;;;33.60;31.70;;;;;;5051131;28;20205;-62
2021/05/30 08:09:53;;;;;;;3.25;1.80;;;33.30;32.00;;;;;;5051029;28;20213;-62
2021/05/30 08:12:19;;;;;;;2.20;2.00;;;33.10;32.20;;;;;;5050754;28;20255;-59
2021/05/30 08:14:46;;;;;;;2.17;1.83;;;33.00;32.60;;;;;;5050575;28;20287;-58
2021/05/30 08:17:13;;;;;;;2.50;1.90;;;33.20;32.90;;;;;;5050853;28;20572;-58
2021/05/30 08:19:39;;;;;;;4.07;1.83;;;33.20;33.00;;;;;;5050719;28;20228;-58
2021/05/30 08:22:05;;;;;;;4.57;1.90;;;33.20;32.80;;;;;;5050804;28;20278;-58
2021/05/30 08:24:32;;;;;;;3.55;2.30;;;33.00;32.90;;;;;;5050619;28;20230;-58
2021/05/30 08:26:58;;;;;;;4.40;2.60;;;32.70;35.10;;;;;;5050653;28;20248;-58
2021/05/30 08:29:25;;;;;;;3.22;2.75;;;32.80;35.70;;;;;;5050658;28;20669;-57
2021/05/30 08:31:52;;;;;;;2.83;2.50;;;31.10;37.80;;;;;;5050924;28;20347;-57
2021/05/30 08:34:19;;;;;;;3.70;2.30;;;28.70;41.10;;;;;;5050673;28;20252;-57
2021/05/30 08:36:46;;;;;;;3.67;2.60;;;27.10;42.80;;;;;;5050907;28;20218;-57
2021/05/30 08:39:12;;;;;;;3.90;2.40;;;26.10;44.70;;;;;;5050787;28;20202;-57
2021/05/30 08:41:40;;;;;;;3.10;2.55;;;25.30;45.00;;;;;;5059715;28;20500;-59
2021/05/30 08:44:08;;;;;;;3.88;2.60;;;25.20;44.70;;;;;;5071057;28;20240;-64
2021/05/30 08:46:34;;;;;;;4.38;2.60;;;24.70;45.40;;;;;;5071042;28;20576;-63
2021/05/30 08:49:02;;;;;;;3.45;2.40;;;23.90;46.60;;;;;;5064844;28;20267;-62
2021/05/30 08:51:29;;;;;;;2.78;2.28;;;23.40;47.40;;;;;;5051047;28;20206;-62
2021/05/30 08:53:55;;;;;;;2.92;2.28;;;22.80;47.50;;;;;;5051358;28;20762;-61
2021/05/30 08:56:22;;;;;;;3.67;2.20;;;22.20;46.20;;;;;;5051203;28;20208;-61
2021/05/30 08:58:50;;;;;;;4.22;2.40;;;21.70;48.30;;;;;;5050806;28;20700;-60
2021/05/30 09:01:19;;;;;;;3.58;2.50;;;21.20;50.70;;;;;;5051032;28;20212;-62
2021/05/30 09:03:54;;;;;;;3.78;2.53;;;20.70;51.40;;;;;;5050690;28;20233;-62
2021/05/30 09:06:22;;;;;;;3.22;2.20;;;20.40;52.90;;;;;;5050987;28;20209;-62
2021/05/30 09:08:52;;;;;;;4.05;2.30;;;20.20;50.00;;;;;;5050208;28;20206;-59
2021/05/30 09:11:40;;;;;;;2.35;2.10;;;20.20;49.60;;;;;;5050577;28;20299;-59
2021/05/30 09:14:09;;;;;;;3.65;2.05;;;20.10;49.50;;;;;;5050363;28;20225;-58
2021/05/30 09:16:58;;;;;;;2.30;2.10;;;19.80;49.50;;;;;;5050647;28;20216;-60
2021/05/30 09:19:43;;;;;;;5.25;2.20;;;19.90;50.40;;;;;;5050546;28;20213;-59
2021/05/30 09:22:23;;;;;;;4.50;2.20;;;20.10;50.70;;;;;;5050133;28;20254;-60
2021/05/30 09:25:05;;;;;;;2.22;2.03;;;20.40;51.40;;;;;;5050068;28;20782;-57
2021/05/30 09:27:32;;;;;;;4.88;2.30;;;20.80;50.30;;;;;;5052310;28;20205;-57
2021/05/30 09:30:11;;;;;;;3.25;2.22;;;21.20;49.70;;;;;;5053823;28;20690;-57
2021/05/30 09:33:06;;;;;;;2.50;2.17;;;21.60;49.00;;;;;;5054002;28;20260;-57
2021/05/30 09:35:54;;;;;;;3.30;2.10;;;21.80;48.80;;;;;;5053966;28;20209;-57
2021/05/30 09:38:33;;;;;;;2.65;2.13;;;22.10;48.70;;;;;;5053969;28;20206;-57
2021/05/30 09:41:02;;;;;;;5.47;2.38;;;22.20;48.60;;;;;;5053921;28;20266;-57
2021/05/30 09:43:31;;;;;;;2.88;2.28;;;22.30;47.60;;;;;;5053574;28;20234;-57
2021/05/30 09:46:03;;;;;;;3.30;2.17;;;22.20;47.80;;;;;;5053753;28;20210;-57
2021/05/30 09:48:30;;;;;;;4.32;2.40;;;22.20;48.10;;;;;;5054015;28;20247;-57
2021/05/30 09:51:03;;;;;;;3.80;2.25;;;22.00;48.50;;;;;;5053707;28;20689;-57
2021/05/30 09:53:32;;;;;;;2.45;1.98;;;21.60;49.00;;;;;;5053567;28;20225;-57
2021/05/30 09:55:58;;;;;;;2.78;2.20;;;21.20;50.20;;;;;;5054020;28;20206;-57
2021/05/30 09:58:24;;;;;;;3.05;2.15;;;20.90;48.40;;;;;;5053893;28;20584;-57
2021/05/30 10:01:04;;;;;;;2.72;2.05;;;20.60;48.20;;;;;;5053685;28;20202;-57
2021/05/30 10:03:31;;;;;;;4.47;2.30;;;20.40;49.30;;;;;;5053908;28;20297;-57
2021/05/30 10:06:00;;;;;;;3.30;2.50;;;20.50;49.20;;;;;;5053870;28;20209;-57
2021/05/30 10:08:26;;;;;;;4.00;2.58;;;20.50;48.80;;;;;;5053920;28;20674;-58
2021/05/30 10:10:53;;;;;;;3.80;2.20;;;20.70;48.20;;;;;;5053531;28;20202;-58
2021/05/30 10:13:21;;;;;;;2.40;2.13;;;20.90;48.50;;;;;;5053314;28;20229;-57
2021/05/30 10:15:47;;;;;;;4.53;2.10;;;21.20;45.40;;;;;;5053799;28;20210;-58
2021/05/30 10:18:18;;;;;;;2.95;1.85;;;21.30;45.80;;;;;;5053596;28;20236;-58
2021/05/30 10:20:47;;;;;;;2.67;1.77;;;21.20;45.60;;;;;;5053703;28;20447;-57
2021/05/30 10:23:17;;;;;;;3.05;1.98;;;21.20;45.10;;;;;;5053071;28;20225;-57
2021/05/30 10:25:44;;;;;;;2.42;1.90;;;21.40;45.40;;;;;;5053072;28;20267;-57
2021/05/30 10:28:13;;;;;;;3.83;2.00;;;21.60;44.70;;;;;;5053118;28;20632;-57
2021/05/30 10:30:41;;;;;;;2.75;1.95;;;21.70;45.70;;;;;;5053130;28;20577;-57
2021/05/30 10:33:18;;;;;;;2.75;1.88;;;21.60;45.70;;;;;;5053132;28;20602;-58
2021/05/30 10:35:47;;;;;;;5.22;1.90;;;21.50;46.50;;;;;;5053068;28;20220;-58
2021/05/30 10:38:35;;;;;;;3.22;1.92;;;21.30;46.50;;;;;;5052959;28;20202;-57
2021/05/30 10:41:14;;;;;;;4.32;2.22;;;21.10;47.30;;;;;;5052823;28;20202;-57
2021/05/30 10:43:41;;;;;;;3.08;2.00;;;21.00;47.50;;;;;;5052645;28;20257;-58
2021/05/30 10:46:08;;;;;;;2.65;2.40;;;21.20;46.90;;;;;;5053242;28;20209;-56
2021/05/30 10:48:37;;;;;;;2.15;1.67;;;21.30;46.70;;;;;;5052561;28;20213;-57
2021/05/30 10:51:14;;;;;;;3.38;2.35;;;21.30;47.20;;;;;;5052950;28;20206;-57
2021/05/30 10:53:41;;;;;;;2.58;2.13;;;21.30;47.50;;;;;;5052633;28;20304;-57
2021/05/30 10:56:30;;;;;;;2.40;1.90;;;21.30;45.80;;;;;;5052782;28;20209;-57
2021/05/30 10:59:35;;;;;;;5.03;2.10;;;21.20;46.10;;;;;;5052588;28;20213;-57
2021/05/30 11:02:04;;;;;;;3.72;2.03;;;21.30;46.50;;;;;;5052393;28;20205;-57
2021/05/30 11:04:37;;;;;;;4.07;2.03;;;21.40;45.40;;;;;;5052483;28;20226;-57
2021/05/30 11:07:09;;;;;;;2.25;1.85;;;21.60;45.60;;;;;;5052904;28;20591;-57
2021/05/30 11:10:09;;;;;;;3.10;1.70;;;21.90;46.10;;;;;;5052223;28;20209;-57
2021/05/30 11:12:47;;;;;;;3.40;1.90;;;22.20;44.10;;;;;;5052835;28;20206;-56
2021/05/30 11:15:31;;;;;;;2.75;2.05;;;22.30;45.30;;;;;;5052598;28;20221;-57
2021/05/30 11:18:00;;;;;;;3.70;2.10;;;22.10;45.80;;;;;;5052453;28;20224;-58
2021/05/30 11:20:39;;;;;;;2.63;1.90;;;21.80;46.40;;;;;;5052611;28;20209;-58
2021/05/30 11:23:09;;;;;;;2.05;1.60;;;21.50;46.20;;;;;;5052191;28;20229;-56
2021/05/30 11:25:38;;;;;;;2.22;1.65;;;21.50;46.10;;;;;;5051814;28;20627;-57
2021/05/30 11:28:06;;;;;;;3.80;2.08;;;21.40;46.10;;;;;;5051723;28;20209;-57
2021/05/30 11:30:53;;;;;;;4.35;2.05;;;21.40;45.80;;;;;;5052076;28;20416;-57
2021/05/30 11:33:41;;;;;;;2.15;1.60;;;21.50;46.00;;;;;;5051619;28;20595;-57
2021/05/30 11:36:15;;;;;;;2.35;1.48;;;21.40;42.60;;;;;;5051976;28;20209;-58
2021/05/30 11:38:47;;;;;;;3.00;1.60;;;21.50;43.00;;;;;;5051889;28;20209;-58
2021/05/30 11:41:20;;;;;;;6.80;1.75;;;21.60;43.70;;;;;;5051883;28;20205;-58
2021/05/30 11:43:59;;;;;;;2.40;1.65;;;21.60;44.70;;;;;;5051753;28;20698;-59
2021/05/30 11:46:26;;;;;;;2.35;1.67;;;21.40;45.40;;;;;;5051708;28;20210;-55
2021/05/30 11:49:06;;;;;;;5.38;2.40;;;21.40;45.10;;;;;;5051782;28;20723;-56
2021/05/30 11:51:58;;;;;;;2.53;1.83;;;21.40;44.90;;;;;;5051886;28;20593;-56
2021/05/30 11:54:25;;;;;;;2.63;2.08;;;21.40;44.80;;;;;;5050165;28;20229;-56
2021/05/30 11:56:53;;;;;;;1.95;1.70;;;21.50;45.20;;;;;;5052765;28;20221;-56
2021/05/30 11:59:35;;;;;;;2.15;1.52;;;21.60;41.60;;;;;;5051188;28;20202;-57
2021/05/30 12:02:01;;;;;;;3.00;1.77;;;21.60;41.10;;;;;;5051202;28;20210;-56
2021/05/30 12:04:32;;;;;;;5.07;1.58;;;21.60;41.40;;;;;;5051404;28;20233;-56
2021/05/30 12:06:59;;;;;;;4.35;1.52;;;21.60;40.80;;;;;;5051244;28;20223;-56
2021/05/30 12:09:43;;;;;;;3.20;1.92;;;21.40;40.60;;;;;;5050978;28;20666;-56
2021/05/30 12:12:31;;;;;;;2.28;2.00;;;21.40;43.60;;;;;;5051341;28;20228;-56
2021/05/30 12:15:11;;;;;;;1.98;1.63;;;21.40;44.30;;;;;;5051025;28;20728;-56
2021/05/30 12:17:39;;;;;;;3.95;1.90;;;21.50;44.70;;;;;;5050932;28;20219;-57
2021/05/30 12:20:14;;;;;;;3.42;2.30;;;21.80;44.10;;;;;;5051145;28;20208;-57
2021/05/30 12:22:41;;;;;;;2.58;2.33;;;22.10;44.90;;;;;;5050881;28;20278;-56
2021/05/30 12:25:09;;;;;;;3.22;2.40;;;22.30;45.10;;;;;;5050971;28;20298;-56
2021/05/30 12:27:36;;;;;;;3.20;2.30;;;22.30;45.80;;;;;;5051003;28;20210;-56
2021/05/30 12:30:03;;;;;;;2.70;2.03;;;22.20;46.20;;;;;;5051169;28;20308;-56
2021/05/30 12:32:29;;;;;;;5.28;2.38;;;22.00;46.60;;;;;;5051222;28;20201;-56
2021/05/30 12:34:56;;;;;;;4.05;2.30;;;21.80;47.50;;;;;;5050766;28;20237;-57
2021/05/30 12:37:42;;;;;;;4.30;2.40;;;21.70;48.20;;;;;;5051145;28;20205;-57
2021/05/30 12:40:10;;;;;;;4.82;2.50;;;21.70;48.20;;;;;;5051092;28;20221;-58
2021/05/30 12:42:36;;;;;;;4.47;2.33;;;21.80;45.50;;;;;;5050932;28;20217;-57
2021/05/30 12:45:06;;;;;;;3.78;2.05;;;22.00;46.20;;;;;;5050788;28;20233;-58
2021/05/30 12:47:40;;;;;;;3.13;2.30;;;22.30;45.80;;;;;;5050903;28;20593;-57
2021/05/30 12:50:08;;;;;;;3.08;2.33;;;22.60;45.50;;;;;;5051036;28;20212;-57
2021/05/30 12:52:45;;;;;;;2.60;2.15;;;22.70;46.00;;;;;;5050761;28;20228;-57
2021/05/30 12:55:12;;;;;;;2.67;2.40;;;22.60;46.10;;;;;;5050801;28;20644;-58
2021/05/30 12:57:39;;;;;;;2.72;1.90;;;22.60;45.70;;;;;;5050823;28;20226;-58